Time;durP1;ratioP1;P1;durP2;ratioP2;P2;SDS_P1;SDS_P2;PMS_P1;PMS_P2;Temp;Humidity;BMP_temperature;BMP_pressure;BME280_temperature;BME280_humidity;BME280_pressure;Samples;Min_cycle;Max_cycle;Signal;HPM_P1;HPM_P2
2022/04/25 00:01:52;;;;;;;31.15;2.95;;;5.40;99.90;;;;;;5091802;28;20391;-88
2022/04/25 00:04:21;;;;;;;15.70;1.85;;;5.40;99.90;;;;;;5092642;28;20443;-87
2022/04/25 00:06:49;;;;;;;1.98;0.70;;;5.40;99.90;;;;;;5093418;28;20418;-87
2022/04/25 00:09:17;;;;;;;451.02;64.57;;;5.40;99.90;;;;;;5093311;28;20415;-85
2022/04/25 00:11:45;;;;;;;501.27;56.60;;;5.50;99.90;;;;;;5079320;28;20390;-86
2022/04/25 00:14:14;;;;;;;1.60;0.77;;;5.50;99.90;;;;;;5072465;28;20420;-88
2022/04/25 00:16:42;;;;;;;6.78;1.23;;;5.50;99.90;;;;;;5073937;28;20505;-85
2022/04/25 00:19:10;;;;;;;532.85;87.43;;;5.20;99.90;;;;;;5073685;28;20755;-88
2022/04/25 00:21:38;;;;;;;178.93;20.27;;;5.20;99.90;;;;;;5073643;28;20435;-84
2022/04/25 00:24:06;;;;;;;580.42;86.88;;;5.30;99.90;;;;;;5081460;28;20392;-87
2022/04/25 00:26:34;;;;;;;299.70;39.60;;;5.30;99.90;;;;;;5089312;28;20466;-87
2022/04/25 00:29:01;;;;;;;4.25;1.10;;;5.20;99.90;;;;;;5073295;28;20382;-88
2022/04/25 00:31:29;;;;;;;35.90;5.40;;;5.10;99.90;;;;;;5079753;28;20433;-88
2022/04/25 00:33:57;;;;;;;0.65;0.65;;;5.00;99.90;;;;;;5073789;28;20390;-85
2022/04/25 00:36:25;;;;;;;470.65;56.55;;;5.00;99.90;;;;;;5073549;28;20390;-88
2022/04/25 00:38:52;;;;;;;144.88;19.90;;;5.10;99.90;;;;;;5072182;28;20420;-88
2022/04/25 00:41:20;;;;;;;409.20;44.17;;;5.20;99.90;;;;;;5082809;28;20770;-85
2022/04/25 00:43:48;;;;;;;31.93;3.60;;;5.20;99.90;;;;;;5091705;28;20905;-87
2022/04/25 00:46:20;;;;;;;49.50;5.05;;;5.10;99.90;;;;;;5073243;28;20380;-87
2022/04/25 00:48:49;;;;;;;54.55;7.60;;;5.00;99.90;;;;;;5086719;28;20476;-86
2022/04/25 00:51:18;;;;;;;198.75;23.17;;;5.00;99.90;;;;;;5089081;28;20389;-86
2022/04/25 00:53:48;;;;;;;207.70;28.30;;;5.00;99.90;;;;;;5072801;28;20390;-88
2022/04/25 00:56:17;;;;;;;290.23;32.30;;;5.10;99.90;;;;;;5073002;28;20872;-85
2022/04/25 00:58:45;;;;;;;731.55;97.13;;;5.20;99.90;;;;;;5071963;28;20410;-86
2022/04/25 01:01:14;;;;;;;509.10;77.83;;;5.20;99.90;;;;;;5071499;28;20872;-85
2022/04/25 01:03:43;;;;;;;412.90;49.25;;;5.20;99.90;;;;;;5071608;28;20394;-85
2022/04/25 01:06:11;;;;;;;500.05;62.17;;;5.10;99.90;;;;;;5071637;28;20456;-85
2022/04/25 01:08:39;;;;;;;63.17;6.40;;;5.20;99.90;;;;;;5071342;28;20487;-86
2022/04/25 01:11:07;;;;;;;865.75;127.45;;;5.10;99.90;;;;;;5075370;28;20390;-84
2022/04/25 01:13:35;;;;;;;492.33;76.53;;;5.10;99.90;;;;;;5079903;28;20428;-85
2022/04/25 01:16:03;;;;;;;477.52;68.90;;;5.20;99.90;;;;;;5090473;28;20807;-89
2022/04/25 01:18:32;;;;;;;837.40;126.10;;;5.10;99.90;;;;;;5089901;28;20882;-87
2022/04/25 01:21:00;;;;;;;151.18;17.00;;;5.10;99.90;;;;;;5072418;28;20907;-85
2022/04/25 01:29:01;;;;;;;807.45;105.40;;;5.10;99.90;;;;;;5070988;28;20435;-85
2022/04/25 01:31:29;;;;;;;306.33;37.58;;;5.10;99.90;;;;;;5072154;28;20390;-83
2022/04/25 01:33:57;;;;;;;127.90;13.17;;;5.10;99.90;;;;;;5071685;28;21006;-89
2022/04/25 01:36:25;;;;;;;144.15;13.15;;;5.10;99.90;;;;;;5072099;28;20864;-85
2022/04/25 01:38:54;;;;;;;283.40;42.07;;;5.00;99.90;;;;;;5081851;28;20405;-87
2022/04/25 01:41:22;;;;;;;131.73;21.05;;;4.90;99.90;;;;;;5072058;28;20382;-85
2022/04/25 01:43:49;;;;;;;69.30;7.63;;;4.90;99.90;;;;;;5070843;28;20391;-84
2022/04/25 01:46:17;;;;;;;72.28;8.02;;;4.90;99.90;;;;;;5072218;28;20386;-84
2022/04/25 01:48:45;;;;;;;125.40;20.30;;;4.70;99.90;;;;;;5072064;28;20447;-88
2022/04/25 01:51:12;;;;;;;31.98;3.03;;;4.60;99.90;;;;;;5070712;28;20386;-87
2022/04/25 01:53:40;;;;;;;240.70;35.55;;;4.50;99.90;;;;;;5086612;28;20436;-88
2022/04/25 01:56:08;;;;;;;401.25;55.08;;;4.60;99.90;;;;;;5086584;28;20471;-87
2022/04/25 01:58:35;;;;;;;297.27;46.85;;;4.60;99.90;;;;;;5090796;28;20392;-86
2022/04/25 02:01:07;;;;;;;166.43;26.58;;;4.70;99.90;;;;;;5090369;28;20898;-88
2022/04/25 02:03:35;;;;;;;526.07;62.93;;;4.60;99.90;;;;;;5091439;28;20406;-87
2022/04/25 02:06:02;;;;;;;218.50;26.08;;;4.70;99.90;;;;;;5091496;28;20407;-88
2022/04/25 02:08:30;;;;;;;130.90;19.17;;;4.70;99.90;;;;;;5090042;28;20394;-88
2022/04/25 02:13:44;;;;;;;13.13;1.70;;;4.40;99.90;;;;;;5089474;28;20480;-87
2022/04/25 02:16:11;;;;;;;36.60;4.10;;;4.30;99.90;;;;;;5090133;28;20876;-86
2022/04/25 02:18:40;;;;;;;8.50;1.10;;;4.40;99.90;;;;;;5090440;28;20388;-86
2022/04/25 02:21:08;;;;;;;1.20;0.70;;;4.40;99.90;;;;;;5090062;28;20463;-88
2022/04/25 02:23:36;;;;;;;0.60;0.60;;;4.30;99.90;;;;;;5089624;28;20738;-87
2022/04/25 02:26:10;;;;;;;107.78;12.02;;;4.20;99.90;;;;;;5070535;28;20386;-87
2022/04/25 02:28:39;;;;;;;329.70;45.90;;;4.20;99.90;;;;;;5071858;28;20741;-87
2022/04/25 02:31:07;;;;;;;287.40;36.10;;;4.30;99.90;;;;;;5070403;28;20383;-88
2022/04/25 02:33:36;;;;;;;18.15;1.80;;;4.40;99.90;;;;;;5069586;28;20394;-88
2022/04/25 02:36:05;;;;;;;306.13;32.37;;;4.20;99.90;;;;;;5082944;28;20456;-86
2022/04/25 02:38:34;;;;;;;409.58;48.10;;;4.30;99.90;;;;;;5085302;28;20386;-87
2022/04/25 02:41:05;;;;;;;220.45;25.00;;;4.30;99.90;;;;;;5074480;28;20401;-87
2022/04/25 02:43:40;;;;;;;363.45;64.50;;;4.30;99.90;;;;;;5085820;28;20783;-88
2022/04/25 02:46:14;;;;;;;63.92;5.53;;;4.30;99.90;;;;;;5067188;28;20386;-87
2022/04/25 02:48:45;;;;;;;541.57;70.17;;;4.30;99.90;;;;;;5092774;28;20384;-86
2022/04/25 02:51:14;;;;;;;346.60;66.10;;;4.30;99.90;;;;;;5094958;28;20381;-88
2022/04/25 02:53:42;;;;;;;238.48;30.83;;;4.30;99.90;;;;;;5093779;28;20468;-83
2022/04/25 02:56:10;;;;;;;776.25;101.45;;;4.30;99.90;;;;;;5093715;28;20749;-85
2022/04/25 02:58:39;;;;;;;344.80;55.15;;;4.40;99.90;;;;;;5094980;28;20384;-86
2022/04/25 03:01:07;;;;;;;375.08;45.20;;;4.40;99.90;;;;;;5093541;28;20823;-85
2022/04/25 03:03:36;;;;;;;210.17;25.63;;;4.50;99.90;;;;;;5094738;28;20611;-86
2022/04/25 03:06:07;;;;;;;164.35;20.98;;;4.40;99.90;;;;;;5093841;28;20384;-86
2022/04/25 03:08:35;;;;;;;501.42;60.42;;;4.50;99.90;;;;;;5093460;28;20810;-87
2022/04/25 03:11:05;;;;;;;417.98;55.22;;;4.50;99.90;;;;;;5093677;28;20481;-85
2022/04/25 03:13:34;;;;;;;378.63;63.88;;;4.50;99.90;;;;;;5094754;28;20388;-86
2022/04/25 03:16:06;;;;;;;320.23;34.47;;;4.50;99.90;;;;;;5093427;28;20384;-88
2022/04/25 03:18:34;;;;;;;488.98;107.85;;;4.50;99.90;;;;;;5077919;28;20398;-87
2022/04/25 03:21:02;;;;;;;318.92;44.40;;;4.40;99.90;;;;;;5075132;28;20432;-88
2022/04/25 03:23:30;;;;;;;356.08;51.10;;;4.30;99.90;;;;;;5073599;28;20876;-88
2022/04/25 03:25:58;;;;;;;784.03;151.80;;;4.30;99.90;;;;;;5073946;28;20469;-89
2022/04/25 03:28:26;;;;;;;245.15;32.40;;;4.30;99.90;;;;;;5074388;28;20382;-90
2022/04/25 03:30:54;;;;;;;259.25;34.53;;;4.40;99.90;;;;;;5075069;28;20399;-87
2022/04/25 03:33:24;;;;;;;300.40;51.55;;;4.40;99.90;;;;;;5073303;28;20390;-86
2022/04/25 03:35:52;;;;;;;169.60;21.63;;;4.50;99.90;;;;;;5074343;28;20473;-88
2022/04/25 03:38:21;;;;;;;274.15;41.88;;;4.50;99.90;;;;;;5075388;28;20386;-87
2022/04/25 03:40:49;;;;;;;214.25;27.67;;;4.50;99.90;;;;;;5074312;28;20830;-87
2022/04/25 03:43:17;;;;;;;302.25;51.88;;;4.50;99.90;;;;;;5073493;28;20505;-90
2022/04/25 03:45:45;;;;;;;226.00;33.67;;;4.50;99.90;;;;;;5073162;28;20439;-88
2022/04/25 03:48:12;;;;;;;252.05;45.67;;;4.50;99.90;;;;;;5073973;28;20421;-89
2022/04/25 03:50:40;;;;;;;329.17;49.30;;;4.50;99.90;;;;;;5088300;28;20386;-90
2022/04/25 03:53:11;;;;;;;597.22;72.55;;;4.40;99.90;;;;;;5093337;28;20811;-89
2022/04/25 03:58:24;;;;;;;12.38;1.90;;;4.50;99.90;;;;;;5094067;28;20459;-89
2022/04/25 04:00:52;;;;;;;55.97;8.83;;;4.60;99.90;;;;;;5089205;28;20405;-89
2022/04/25 04:03:20;;;;;;;213.90;24.27;;;4.60;99.90;;;;;;5083183;28;20390;-88
2022/04/25 04:05:49;;;;;;;402.27;81.20;;;4.60;99.90;;;;;;5083429;28;20477;-88
2022/04/25 04:08:17;;;;;;;308.33;36.90;;;4.60;99.90;;;;;;5075286;28;20394;-89
2022/04/25 04:10:45;;;;;;;24.73;2.78;;;4.60;99.90;;;;;;5076649;28;20982;-88
2022/04/25 04:13:13;;;;;;;86.57;10.00;;;4.70;99.90;;;;;;5093645;28;20471;-88
2022/04/25 04:15:43;;;;;;;96.43;10.18;;;4.70;99.90;;;;;;5080024;28;20483;-89
2022/04/25 04:18:11;;;;;;;177.70;33.53;;;4.70;99.90;;;;;;5077249;28;20389;-88
2022/04/25 04:20:39;;;;;;;388.88;63.38;;;4.60;99.90;;;;;;5076439;28;20401;-89
2022/04/25 04:23:07;;;;;;;185.15;21.25;;;4.70;99.90;;;;;;5073610;28;20774;-89
2022/04/25 04:25:36;;;;;;;153.63;32.30;;;4.70;99.90;;;;;;5072887;28;20398;-86
2022/04/25 04:28:06;;;;;;;297.23;41.40;;;4.70;99.90;;;;;;5089642;28;20872;-88
2022/04/25 04:30:34;;;;;;;2.70;2.05;;;4.70;99.90;;;;;;5090479;28;20398;-88
2022/04/25 04:33:02;;;;;;;354.20;60.05;;;4.80;99.90;;;;;;5066657;28;20879;-89
2022/04/25 04:38:16;;;;;;;28.50;4.15;;;4.80;99.90;;;;;;5093129;28;20392;-86
2022/04/25 04:40:44;;;;;;;2.85;2.08;;;4.80;99.90;;;;;;5075266;28;20407;-85
2022/04/25 04:43:12;;;;;;;3.92;2.42;;;4.90;99.90;;;;;;5072796;28;20386;-88
2022/04/25 04:45:43;;;;;;;578.65;92.78;;;4.90;99.90;;;;;;5088084;28;20471;-87
2022/04/25 04:48:11;;;;;;;2.90;2.00;;;4.90;99.90;;;;;;5093104;28;20468;-87
2022/04/25 04:50:39;;;;;;;247.15;53.03;;;4.90;99.90;;;;;;5091720;28;20395;-88
2022/04/25 04:53:07;;;;;;;511.30;81.60;;;4.90;99.90;;;;;;5091952;28;20394;-87
2022/04/25 04:55:36;;;;;;;535.17;122.22;;;4.90;99.90;;;;;;5090454;28;20422;-88
2022/04/25 04:58:04;;;;;;;167.80;33.72;;;5.00;99.90;;;;;;5089544;28;20396;-87
2022/04/25 05:00:31;;;;;;;3.77;2.67;;;5.00;99.90;;;;;;5087772;28;20396;-87
2022/04/25 05:02:59;;;;;;;249.52;68.93;;;5.00;99.90;;;;;;5084393;28;20440;-88
2022/04/25 05:05:27;;;;;;;4.00;2.60;;;5.00;99.90;;;;;;5078621;28;20431;-87
2022/04/25 05:07:55;;;;;;;537.67;74.40;;;5.00;99.90;;;;;;5090413;28;20541;-86
2022/04/25 05:10:23;;;;;;;219.98;38.58;;;5.00;99.90;;;;;;5074572;28;20838;-88
2022/04/25 05:12:54;;;;;;;106.50;23.58;;;5.00;99.90;;;;;;5091134;28;20388;-88
2022/04/25 05:15:24;;;;;;;209.18;48.78;;;5.00;99.90;;;;;;5076396;28;20390;-87
2022/04/25 05:17:55;;;;;;;126.07;23.55;;;5.00;99.90;;;;;;5081077;28;20935;-87
2022/04/25 05:20:24;;;;;;;365.17;57.50;;;5.10;99.90;;;;;;5087795;28;20444;-88
2022/04/25 05:22:52;;;;;;;588.05;141.55;;;5.10;99.90;;;;;;5090246;28;20931;-88
2022/04/25 05:25:23;;;;;;;7.90;3.90;;;5.10;99.90;;;;;;5090998;28;20389;-88
2022/04/25 05:27:53;;;;;;;104.68;24.50;;;5.10;99.90;;;;;;5092271;28;20387;-89
2022/04/25 05:30:25;;;;;;;325.30;57.63;;;5.20;99.90;;;;;;5092126;28;20384;-88
2022/04/25 05:32:57;;;;;;;89.57;19.87;;;5.20;99.90;;;;;;5088293;28;20742;-87
2022/04/25 05:35:28;;;;;;;528.78;117.70;;;5.30;99.90;;;;;;5082547;28;20409;-85
2022/04/25 05:37:57;;;;;;;530.15;96.75;;;5.40;99.90;;;;;;5069671;28;20390;-86
2022/04/25 05:40:25;;;;;;;163.10;42.92;;;5.40;99.90;;;;;;5076221;28;20478;-87
2022/04/25 05:42:56;;;;;;;138.32;21.05;;;5.50;99.90;;;;;;5087848;28;20447;-86
2022/04/25 05:45:26;;;;;;;12.40;3.33;;;5.50;99.90;;;;;;5079102;28;20736;-87
2022/04/25 05:47:55;;;;;;;97.63;14.77;;;5.60;99.90;;;;;;5087578;28;20393;-86
2022/04/25 05:53:13;;;;;;;70.57;8.68;;;5.60;99.90;;;;;;5071938;28;20444;-87
2022/04/25 05:55:41;;;;;;;540.85;91.53;;;5.60;99.90;;;;;;5070561;28;20389;-87
2022/04/25 05:58:10;;;;;;;3.58;2.90;;;5.70;99.90;;;;;;5070881;28;20386;-88
2022/04/25 06:00:37;;;;;;;126.28;26.30;;;5.80;99.90;;;;;;5087328;28;20445;-87
2022/04/25 06:03:05;;;;;;;5.55;3.05;;;5.80;99.90;;;;;;5090475;28;20388;-87
2022/04/25 06:05:33;;;;;;;183.80;26.70;;;5.90;99.90;;;;;;5090562;28;20383;-86
2022/04/25 06:08:01;;;;;;;4.65;3.28;;;5.80;99.90;;;;;;5090609;28;20442;-87
2022/04/25 06:10:28;;;;;;;5.20;3.70;;;5.90;99.90;;;;;;5077527;28;20401;-87
2022/04/25 06:12:57;;;;;;;288.00;49.23;;;5.90;99.90;;;;;;5076751;28;20445;-87
2022/04/25 06:15:25;;;;;;;126.07;18.67;;;6.00;99.90;;;;;;5081705;28;20439;-86
2022/04/25 06:17:54;;;;;;;60.75;8.40;;;6.00;99.90;;;;;;5074571;28;20857;-88
2022/04/25 06:20:22;;;;;;;635.35;103.03;;;6.10;99.90;;;;;;5074357;28;20447;-88
2022/04/25 06:23:02;;;;;;;170.75;24.25;;;6.10;99.90;;;;;;5084059;28;20382;-86
2022/04/25 06:25:30;;;;;;;951.63;130.02;;;6.20;99.90;;;;;;5074597;28;20386;-88
2022/04/25 06:28:00;;;;;;;302.38;56.05;;;6.30;99.90;;;;;;5074273;28;20378;-87
2022/04/25 06:30:29;;;;;;;54.42;12.68;;;6.50;99.90;;;;;;5086955;28;20748;-86
2022/04/25 06:32:58;;;;;;;344.02;54.92;;;6.50;99.90;;;;;;5075672;28;20386;-87
2022/04/25 06:35:27;;;;;;;115.95;24.33;;;6.40;99.90;;;;;;5074288;28;20400;-87
2022/04/25 06:37:55;;;;;;;477.75;72.32;;;6.40;99.90;;;;;;5074745;28;20382;-86
2022/04/25 06:40:23;;;;;;;242.23;39.37;;;6.50;99.90;;;;;;5095036;28;20483;-89
2022/04/25 06:42:53;;;;;;;561.40;74.88;;;6.50;99.90;;;;;;5077043;28;20391;-89
2022/04/25 06:45:21;;;;;;;398.45;67.13;;;6.50;99.90;;;;;;5076581;28;20895;-88
2022/04/25 06:47:50;;;;;;;237.20;45.33;;;6.60;99.90;;;;;;5064673;28;20945;-87
2022/04/25 06:50:18;;;;;;;3.93;2.67;;;6.60;99.90;;;;;;5109364;27;20864;-87
2022/04/25 06:52:46;;;;;;;2.85;2.38;;;6.60;99.90;;;;;;5091411;28;20391;-88
2022/04/25 06:55:14;;;;;;;95.00;16.25;;;6.50;99.90;;;;;;5084258;28;20461;-87
2022/04/25 06:57:42;;;;;;;8.75;3.22;;;6.50;99.90;;;;;;5076326;28;20410;-87
2022/04/25 07:00:11;;;;;;;173.52;26.52;;;6.50;99.90;;;;;;5090426;28;20412;-88
2022/04/25 07:02:59;;;;;;;55.65;8.30;;;6.60;99.90;;;;;;5093701;28;20803;-88
2022/04/25 07:05:27;;;;;;;633.85;93.05;;;6.80;99.90;;;;;;5073453;28;20386;-88
2022/04/25 07:07:55;;;;;;;118.55;19.90;;;6.80;99.90;;;;;;5074844;28;20879;-87
2022/04/25 07:10:23;;;;;;;116.28;22.25;;;6.80;99.90;;;;;;5068745;28;20471;-89
2022/04/25 07:12:52;;;;;;;482.50;68.35;;;6.90;99.90;;;;;;5106947;28;20485;-88
2022/04/25 07:15:20;;;;;;;79.63;15.85;;;7.00;99.90;;;;;;5073415;28;20453;-89
2022/04/25 07:17:50;;;;;;;37.60;5.10;;;7.10;99.90;;;;;;5073848;28;20396;-88
2022/04/25 07:20:19;;;;;;;278.30;50.60;;;7.10;99.90;;;;;;5087795;28;20396;-89
2022/04/25 07:31:06;;;;;;;525.93;77.20;;;7.20;99.90;;;;;;5079341;28;20397;-88
2022/04/25 07:33:35;;;;;;;188.40;27.60;;;7.20;99.90;;;;;;5078047;28;20424;-88
2022/04/25 07:36:04;;;;;;;695.45;94.43;;;7.30;99.90;;;;;;5073208;28;20896;-89
2022/04/25 07:38:32;;;;;;;721.25;124.50;;;7.30;99.90;;;;;;5089155;28;20392;-89
2022/04/25 07:41:00;;;;;;;188.73;22.25;;;7.30;99.90;;;;;;5056082;28;20471;-88
2022/04/25 07:43:29;;;;;;;4.15;2.83;;;7.40;99.90;;;;;;5073784;28;20396;-89
2022/04/25 07:45:59;;;;;;;253.38;42.10;;;7.40;99.90;;;;;;5075017;28;20477;-88
2022/04/25 07:48:28;;;;;;;83.18;19.40;;;7.50;99.90;;;;;;5091685;28;20753;-88
2022/04/25 07:50:56;;;;;;;1068.78;108.40;;;7.50;99.90;;;;;;5076327;28;20407;-87
2022/04/25 07:53:23;;;;;;;258.23;40.53;;;7.50;99.90;;;;;;5075255;28;20739;-88
2022/04/25 07:55:51;;;;;;;338.40;46.45;;;7.60;99.90;;;;;;5092579;28;20393;-86
2022/04/25 07:58:19;;;;;;;54.43;9.03;;;7.60;99.90;;;;;;5094297;28;20445;-88
2022/04/25 08:00:48;;;;;;;392.92;50.83;;;7.50;99.90;;;;;;5092480;28;20401;-88
2022/04/25 08:03:16;;;;;;;766.17;66.60;;;7.60;99.90;;;;;;5086924;28;20390;-88
2022/04/25 08:05:44;;;;;;;389.83;80.70;;;7.60;99.90;;;;;;5075153;28;20390;-88
2022/04/25 08:08:12;;;;;;;623.10;71.55;;;7.60;99.90;;;;;;5073158;28;20425;-86
2022/04/25 08:10:41;;;;;;;179.15;23.48;;;7.60;99.90;;;;;;5092204;28;20454;-88
2022/04/25 08:18:43;;;;;;;129.07;16.17;;;7.60;99.90;;;;;;5093153;28;20737;-89
2022/04/25 08:21:11;;;;;;;435.60;59.63;;;7.60;99.90;;;;;;5073910;28;20417;-89
2022/04/25 08:23:40;;;;;;;529.35;68.70;;;7.60;99.90;;;;;;5076141;28;20382;-88
2022/04/25 08:26:08;;;;;;;4.10;2.50;;;7.60;99.90;;;;;;5070724;28;20384;-88
2022/04/25 08:28:35;;;;;;;268.60;56.53;;;7.70;99.90;;;;;;5095322;28;20430;-88
2022/04/25 08:31:23;;;;;;;18.80;4.05;;;7.70;99.90;;;;;;5081185;28;20897;-88
2022/04/25 08:33:51;;;;;;;245.07;29.53;;;7.80;99.90;;;;;;5095713;28;20384;-89
2022/04/25 08:36:20;;;;;;;5.32;2.83;;;7.90;99.90;;;;;;5095277;28;20406;-88
2022/04/25 08:38:47;;;;;;;408.53;77.77;;;7.90;99.90;;;;;;5095400;28;20392;-85
2022/04/25 08:41:21;;;;;;;64.07;9.00;;;7.80;99.90;;;;;;5095245;28;20428;-87
2022/04/25 08:43:53;;;;;;;273.25;62.25;;;7.80;99.90;;;;;;5086820;28;20436;-88
2022/04/25 08:46:21;;;;;;;67.20;12.77;;;7.70;99.90;;;;;;5090840;28;20408;-89
2022/04/25 08:48:52;;;;;;;284.52;39.97;;;7.70;99.90;;;;;;5095483;28;20478;-89
2022/04/25 08:51:22;;;;;;;335.33;58.83;;;7.70;99.90;;;;;;5094383;28;20408;-88
2022/04/25 08:53:52;;;;;;;333.60;42.28;;;7.70;99.90;;;;;;5085483;28;20416;-85
2022/04/25 08:56:23;;;;;;;295.23;63.30;;;7.70;99.90;;;;;;5090970;28;20433;-87
2022/04/25 08:58:51;;;;;;;243.15;48.97;;;7.70;99.90;;;;;;5079070;28;20386;-86
2022/04/25 09:01:19;;;;;;;4.03;3.05;;;7.70;99.90;;;;;;5061478;28;20695;-87
2022/04/25 09:03:47;;;;;;;412.67;72.32;;;7.70;99.90;;;;;;5084074;28;20471;-87
2022/04/25 09:06:15;;;;;;;473.48;98.07;;;7.80;99.90;;;;;;5102941;28;20420;-88
2022/04/25 09:08:43;;;;;;;42.15;6.85;;;7.90;99.90;;;;;;5079242;28;20406;-89
2022/04/25 09:13:58;;;;;;;177.90;38.13;;;7.90;99.90;;;;;;5083012;28;20489;-87
2022/04/25 09:16:29;;;;;;;102.32;14.73;;;7.90;99.90;;;;;;5107861;28;20399;-88
2022/04/25 09:18:58;;;;;;;175.45;23.90;;;7.90;99.90;;;;;;5074294;28;20485;-89
2022/04/25 09:21:26;;;;;;;362.60;53.47;;;8.00;99.90;;;;;;5076074;28;20759;-89
2022/04/25 09:23:54;;;;;;;54.80;9.98;;;8.00;99.90;;;;;;5075365;28;20408;-87
2022/04/25 09:26:28;;;;;;;209.20;31.50;;;8.10;99.90;;;;;;5070382;28;20448;-88
2022/04/25 09:28:57;;;;;;;264.92;57.83;;;8.20;99.90;;;;;;5096739;28;20385;-86
2022/04/25 09:31:25;;;;;;;428.23;70.60;;;8.30;99.90;;;;;;5087936;28;20390;-87
2022/04/25 09:33:54;;;;;;;847.87;75.50;;;8.30;99.90;;;;;;5073833;28;20873;-89
2022/04/25 09:36:21;;;;;;;469.15;66.22;;;8.50;99.90;;;;;;5072581;28;20417;-88
2022/04/25 09:38:49;;;;;;;52.20;9.50;;;8.60;99.90;;;;;;5074451;28;20903;-88
2022/04/25 09:41:17;;;;;;;260.60;30.33;;;8.40;99.90;;;;;;5072452;28;20402;-89
2022/04/25 09:43:47;;;;;;;581.25;68.65;;;8.40;99.90;;;;;;5064597;28;20405;-88
2022/04/25 09:46:20;;;;;;;218.25;40.90;;;8.40;99.90;;;;;;5086454;28;20484;-88
2022/04/25 09:49:01;;;;;;;212.23;33.22;;;8.50;99.90;;;;;;5095143;28;20384;-89
2022/04/25 09:51:30;;;;;;;384.75;65.45;;;8.50;99.90;;;;;;5091670;28;20982;-87
2022/04/25 09:53:57;;;;;;;37.28;5.53;;;8.60;99.90;;;;;;5081112;28;20404;-89
2022/04/25 09:56:27;;;;;;;139.60;18.33;;;8.50;99.90;;;;;;5075191;28;20436;-87
2022/04/25 09:59:00;;;;;;;756.57;88.83;;;8.50;99.90;;;;;;5076927;28;20461;-87
2022/04/25 10:01:29;;;;;;;226.93;35.85;;;8.50;99.90;;;;;;5096712;28;20458;-86
2022/04/25 10:03:58;;;;;;;306.37;49.50;;;8.70;99.90;;;;;;5098991;28;20459;-88
2022/04/25 10:06:32;;;;;;;28.42;4.28;;;8.80;99.90;;;;;;5084057;28;20410;-88
2022/04/25 10:09:06;;;;;;;178.90;21.85;;;8.80;99.90;;;;;;5063152;28;20425;-91
2022/04/25 10:11:39;;;;;;;395.70;73.97;;;8.70;99.90;;;;;;5084271;28;20461;-89
2022/04/25 10:14:07;;;;;;;851.25;92.90;;;8.70;99.90;;;;;;5085856;28;20386;-87
2022/04/25 10:16:35;;;;;;;235.38;33.50;;;8.70;99.90;;;;;;5075286;28;20394;-88
2022/04/25 10:19:03;;;;;;;385.98;50.53;;;8.80;99.90;;;;;;5077733;28;20394;-87
2022/04/25 10:21:31;;;;;;;53.40;6.47;;;8.90;99.90;;;;;;5088912;28;20403;-88
2022/04/25 10:24:00;;;;;;;386.97;68.47;;;8.90;99.90;;;;;;5088368;28;20378;-86
2022/04/25 10:26:30;;;;;;;603.83;108.30;;;8.90;99.90;;;;;;5078117;28;20394;-87
2022/04/25 10:29:07;;;;;;;212.57;29.35;;;9.00;99.90;;;;;;5101041;28;21001;-87
2022/04/25 10:31:41;;;;;;;69.65;18.67;;;9.00;99.90;;;;;;5098422;28;20391;-88
2022/04/25 10:34:10;;;;;;;564.05;79.35;;;9.10;99.90;;;;;;5079976;28;20437;-88
2022/04/25 10:36:37;;;;;;;1606.03;146.85;;;9.20;99.90;;;;;;5100033;28;20424;-87
2022/04/25 10:39:27;;;;;;;729.37;92.73;;;9.60;99.90;;;;;;5100092;28;20395;-88
2022/04/25 10:44:45;;;;;;;562.72;62.40;;;9.80;99.90;;;;;;5099403;28;20452;-90
2022/04/25 10:47:15;;;;;;;357.35;54.85;;;9.70;99.90;;;;;;5097111;28;20384;-86
2022/04/25 10:49:46;;;;;;;1005.63;122.07;;;9.80;99.90;;;;;;5088438;28;20463;-88
2022/04/25 10:52:42;;;;;;;281.03;46.40;;;9.60;99.90;;;;;;5076670;28;20811;-89
2022/04/25 10:55:14;;;;;;;461.87;72.17;;;9.50;99.90;;;;;;5079244;28;20390;-88
2022/04/25 10:58:07;;;;;;;141.23;14.57;;;9.60;99.90;;;;;;5080033;28;20410;-89
2022/04/25 11:00:41;;;;;;;73.55;9.40;;;9.60;99.90;;;;;;5091026;28;20451;-89
2022/04/25 11:03:15;;;;;;;1098.28;116.63;;;9.60;99.90;;;;;;5099742;28;20401;-89
2022/04/25 11:05:46;;;;;;;464.17;57.57;;;9.90;99.90;;;;;;5102024;28;20406;-89
2022/04/25 11:08:19;;;;;;;706.22;84.50;;;10.10;99.90;;;;;;5101211;28;20376;-87
2022/04/25 11:10:57;;;;;;;543.80;57.78;;;10.00;99.90;;;;;;5098412;28;20424;-89
2022/04/25 11:13:34;;;;;;;426.63;51.72;;;9.80;99.90;;;;;;5082718;28;20390;-88
2022/04/25 11:16:24;;;;;;;1001.25;80.38;;;9.80;99.90;;;;;;5076121;28;20387;-90
2022/04/25 11:19:22;;;;;;;69.15;11.98;;;9.50;99.90;;;;;;5107555;28;20433;-89
2022/04/25 11:21:55;;;;;;;306.03;40.03;;;9.50;99.90;;;;;;5101109;28;20507;-88
2022/04/25 11:24:35;;;;;;;504.42;67.50;;;9.70;99.90;;;;;;5097183;28;20398;-89
2022/04/25 11:27:12;;;;;;;314.33;41.35;;;9.90;99.90;;;;;;5067410;28;20788;-89
2022/04/25 11:30:12;;;;;;;452.50;62.22;;;10.10;99.90;;;;;;5100838;28;20385;-90
2022/04/25 11:32:43;;;;;;;227.73;36.55;;;10.40;99.90;;;;;;5081776;28;20408;-88
2022/04/25 11:35:15;;;;;;;815.78;80.22;;;10.60;99.90;;;;;;5103109;28;20396;-89
2022/04/25 11:37:43;;;;;;;1917.78;155.75;;;10.50;99.90;;;;;;5091287;28;20444;-89
2022/04/25 11:40:11;;;;;;;445.70;63.95;;;10.60;99.90;;;;;;5096057;28;20760;-89
2022/04/25 11:42:39;;;;;;;388.55;42.35;;;10.60;99.90;;;;;;5099606;28;20446;-90
2022/04/25 11:45:07;;;;;;;301.45;46.45;;;10.70;99.90;;;;;;5068267;28;20418;-90
2022/04/25 11:47:35;;;;;;;191.90;24.10;;;10.60;99.90;;;;;;5107344;28;20399;-89
2022/04/25 11:50:05;;;;;;;724.40;81.82;;;10.40;99.90;;;;;;5099462;28;20404;-89
2022/04/25 11:52:33;;;;;;;137.32;20.40;;;10.30;99.90;;;;;;5119972;27;20465;-89
2022/04/25 11:55:03;;;;;;;69.07;10.68;;;10.20;99.90;;;;;;5089453;28;20469;-89
2022/04/25 11:57:39;;;;;;;823.70;94.80;;;10.00;99.90;;;;;;5092652;28;20386;-89
2022/04/25 12:00:08;;;;;;;267.58;30.63;;;10.00;99.90;;;;;;5091307;28;20390;-89
2022/04/25 12:02:38;;;;;;;309.55;37.53;;;9.90;99.90;;;;;;5084972;28;20410;-89
2022/04/25 12:05:07;;;;;;;151.87;16.87;;;10.10;99.90;;;;;;5084875;28;20402;-91
2022/04/25 12:07:36;;;;;;;384.80;38.38;;;10.20;99.90;;;;;;5090028;28;20444;-91
2022/04/25 12:15:35;;;;;;;283.70;36.20;;;10.30;99.90;;;;;;5094458;28;20391;-88
2022/04/25 12:18:16;;;;;;;131.20;21.50;;;10.30;99.90;;;;;;5084860;28;20485;-89
2022/04/25 12:20:58;;;;;;;166.07;30.30;;;10.40;99.90;;;;;;5090762;28;20517;-86
2022/04/25 12:23:32;;;;;;;236.45;44.08;;;10.30;99.90;;;;;;5084758;28;20398;-90
2022/04/25 12:26:08;;;;;;;252.10;26.60;;;10.30;99.90;;;;;;5081326;28;20427;-88
2022/04/25 12:28:39;;;;;;;457.40;56.00;;;10.30;99.90;;;;;;5088619;28;20389;-90
2022/04/25 12:31:08;;;;;;;169.03;27.17;;;10.20;99.90;;;;;;5094478;28;20408;-88
2022/04/25 12:33:40;;;;;;;125.20;14.53;;;10.10;99.90;;;;;;5094155;28;20380;-87
2022/04/25 12:36:16;;;;;;;289.38;34.00;;;10.00;99.90;;;;;;5089871;28;20386;-88
2022/04/25 12:38:50;;;;;;;319.75;49.17;;;10.00;99.90;;;;;;5079237;28;20410;-87
2022/04/25 12:41:22;;;;;;;95.97;9.00;;;10.00;99.90;;;;;;5082562;28;20410;-88
2022/04/25 12:43:52;;;;;;;415.23;63.03;;;10.00;99.90;;;;;;5081796;28;20398;-88
2022/04/25 12:46:46;;;;;;;504.90;50.80;;;10.10;99.90;;;;;;5081728;28;20461;-88
2022/04/25 12:49:20;;;;;;;570.70;79.28;;;10.30;99.90;;;;;;5087884;28;20472;-87
2022/04/25 12:51:58;;;;;;;209.90;24.45;;;10.40;99.90;;;;;;5100752;28;20399;-87
2022/04/25 12:54:46;;;;;;;19.23;2.95;;;10.40;99.90;;;;;;5098188;28;20404;-89
2022/04/25 12:57:19;;;;;;;2.03;1.63;;;10.30;99.90;;;;;;5096985;28;20389;-89
2022/04/25 12:59:53;;;;;;;115.03;14.40;;;10.20;99.90;;;;;;5090021;28;20428;-89
2022/04/25 13:02:35;;;;;;;51.00;14.80;;;10.20;99.90;;;;;;5097907;28;20398;-88
2022/04/25 13:05:13;;;;;;;15.40;2.78;;;10.10;99.90;;;;;;5082604;28;20386;-88
2022/04/25 13:07:43;;;;;;;114.10;11.80;;;10.10;99.90;;;;;;5080557;28;20888;-86
2022/04/25 13:10:14;;;;;;;282.77;27.80;;;10.00;99.90;;;;;;5079380;28;20501;-90
2022/04/25 13:12:55;;;;;;;9.27;2.13;;;10.00;99.90;;;;;;5096816;28;20482;-88
2022/04/25 13:15:31;;;;;;;904.45;123.63;;;10.00;99.90;;;;;;5072452;28;20406;-90
2022/04/25 13:17:58;;;;;;;86.10;10.68;;;9.90;99.90;;;;;;5101342;28;20400;-88
2022/04/25 13:20:34;;;;;;;147.18;14.35;;;9.80;99.90;;;;;;5077548;28;20407;-89
2022/04/25 13:23:05;;;;;;;241.20;41.95;;;9.80;99.90;;;;;;5062923;28;20410;-90
2022/04/25 13:25:33;;;;;;;74.32;8.65;;;9.80;99.90;;;;;;5074197;28;20398;-89
2022/04/25 13:28:01;;;;;;;52.30;8.60;;;9.80;99.90;;;;;;5069839;28;20396;-90